createdAt,value
2022-07-27T00:01:52.085Z,17.30
2022-07-27T00:04:22.262Z,17.20
2022-07-27T00:06:50.453Z,17.20
2022-07-27T00:09:19.659Z,17.20
2022-07-27T00:11:47.046Z,17.20
2022-07-27T00:14:14.659Z,17.20
2022-07-27T00:16:42.042Z,17.10
2022-07-27T00:19:10.109Z,17.10
2022-07-27T00:21:38.761Z,17.10
2022-07-27T00:24:13.296Z,17.10
2022-07-27T00:26:40.456Z,17.10
2022-07-27T00:29:08.207Z,17.10
2022-07-27T00:31:35.525Z,17.00
2022-07-27T00:34:02.974Z,17.10
2022-07-27T00:36:30.137Z,17.00
2022-07-27T00:38:57.219Z,17.10
2022-07-27T00:41:24.509Z,17.00
2022-07-27T00:43:56.578Z,17.00
2022-07-27T00:46:24.895Z,16.90
2022-07-27T00:48:53.438Z,16.90
2022-07-27T00:51:21.616Z,17.00
2022-07-27T00:53:51.327Z,16.90
2022-07-27T00:56:18.979Z,16.80
2022-07-27T00:58:49.624Z,16.80
2022-07-27T01:01:19.140Z,16.80
2022-07-27T01:03:46.477Z,16.70
2022-07-27T01:06:16.169Z,16.80
2022-07-27T01:08:43.845Z,16.70
2022-07-27T01:11:11.818Z,16.70
2022-07-27T01:13:38.941Z,16.70
2022-07-27T01:16:07.730Z,16.70
2022-07-27T01:18:38.031Z,16.70
2022-07-27T01:21:07.647Z,16.60
2022-07-27T01:23:35.552Z,16.70
2022-07-27T01:26:03.783Z,16.60
2022-07-27T01:28:31.045Z,16.60
2022-07-27T01:30:58.350Z,16.60
2022-07-27T01:33:28.372Z,16.60
2022-07-27T01:35:56.693Z,16.60
2022-07-27T01:38:24.027Z,16.50
2022-07-27T01:40:52.880Z,16.50
2022-07-27T01:43:21.255Z,16.50
2022-07-27T01:45:49.281Z,16.50
2022-07-27T01:48:16.534Z,16.50
2022-07-27T01:50:43.737Z,16.40
2022-07-27T01:53:14.776Z,16.40
2022-07-27T01:55:42.104Z,16.50
2022-07-27T01:58:09.714Z,16.40
2022-07-27T02:00:37.268Z,16.30
2022-07-27T02:03:06.139Z,16.30
2022-07-27T02:05:33.574Z,16.30
2022-07-27T02:08:00.843Z,16.40
2022-07-27T02:10:28.136Z,16.40
2022-07-27T02:12:55.379Z,16.30
2022-07-27T02:15:25.661Z,16.30
2022-07-27T02:17:54.215Z,16.30
2022-07-27T02:20:24.224Z,16.20
2022-07-27T02:22:52.099Z,16.20
2022-07-27T02:25:19.657Z,16.20
2022-07-27T02:27:47.734Z,16.10
2022-07-27T02:30:15.168Z,16.10
2022-07-27T02:32:45.424Z,16.20
2022-07-27T02:35:18.717Z,16.10
2022-07-27T02:37:48.649Z,16.10
2022-07-27T02:40:17.536Z,16.10
2022-07-27T02:42:48.140Z,16.10
2022-07-27T02:45:16.005Z,16.10
2022-07-27T02:47:44.470Z,16.20
2022-07-27T02:50:11.599Z,16.10
2022-07-27T02:52:39.104Z,16.10
2022-07-27T02:55:07.308Z,16.10
2022-07-27T02:57:37.797Z,16.10
2022-07-27T03:00:08.153Z,16.10
2022-07-27T03:02:35.594Z,16.10
2022-07-27T03:05:04.903Z,16.00
2022-07-27T03:07:32.606Z,16.00
2022-07-27T03:09:59.767Z,16.00
2022-07-27T03:12:26.968Z,16.00
2022-07-27T03:14:54.176Z,16.00
2022-07-27T03:17:21.436Z,16.00
2022-07-27T03:19:49.905Z,16.00
2022-07-27T03:22:17.444Z,15.90
2022-07-27T03:24:44.758Z,16.00
2022-07-27T03:27:11.927Z,15.90
2022-07-27T03:29:39.484Z,15.90
2022-07-27T03:32:06.939Z,15.90
2022-07-27T03:34:34.075Z,15.90
2022-07-27T03:37:01.365Z,15.80
2022-07-27T03:39:28.682Z,15.80
2022-07-27T03:41:55.841Z,15.80
2022-07-27T03:44:23.218Z,15.80
2022-07-27T03:46:50.364Z,15.80
2022-07-27T03:49:17.688Z,15.70
2022-07-27T03:51:45.051Z,15.80
2022-07-27T03:54:12.862Z,15.70
2022-07-27T03:56:40.078Z,15.70
2022-07-27T03:59:07.263Z,15.70
2022-07-27T04:01:34.588Z,15.70
2022-07-27T04:04:02.061Z,15.70
2022-07-27T04:06:29.384Z,15.70
2022-07-27T04:09:08.082Z,15.70
2022-07-27T04:11:43.597Z,15.70
2022-07-27T04:14:18.344Z,15.70
2022-07-27T04:16:45.744Z,15.70
2022-07-27T04:19:13.692Z,15.60
2022-07-27T04:21:41.415Z,15.60
2022-07-27T04:24:09.008Z,15.60
2022-07-27T04:26:36.983Z,15.70
2022-07-27T04:29:04.468Z,15.60
2022-07-27T04:31:31.991Z,15.70
2022-07-27T04:33:59.120Z,15.70
2022-07-27T04:36:26.700Z,15.60
2022-07-27T04:38:53.990Z,15.70
2022-07-27T04:41:21.163Z,15.70
2022-07-27T04:43:48.480Z,15.70
2022-07-27T04:46:15.810Z,15.70
2022-07-27T04:48:49.415Z,15.70
2022-07-27T04:51:18.478Z,15.70
2022-07-27T04:53:53.702Z,15.80
2022-07-27T04:56:27.426Z,15.80
2022-07-27T04:58:55.342Z,15.80
2022-07-27T05:01:23.366Z,15.90
2022-07-27T05:03:51.079Z,15.90
2022-07-27T05:06:18.699Z,16.00
2022-07-27T05:08:45.850Z,15.90
2022-07-27T05:11:13.057Z,16.00
2022-07-27T05:13:40.611Z,16.10
2022-07-27T05:16:11.510Z,16.00
2022-07-27T05:18:39.223Z,16.10
2022-07-27T05:21:07.173Z,16.20
2022-07-27T05:23:34.774Z,16.20
2022-07-27T05:26:02.689Z,16.20
2022-07-27T05:28:30.264Z,16.20
2022-07-27T05:30:57.488Z,16.30
2022-07-27T05:33:25.624Z,16.30
2022-07-27T05:35:52.920Z,16.40
2022-07-27T05:38:20.222Z,16.40
2022-07-27T05:40:47.746Z,16.40
2022-07-27T05:43:14.846Z,16.50
2022-07-27T05:45:42.092Z,16.50
2022-07-27T05:48:09.585Z,16.60
2022-07-27T05:50:37.109Z,16.60
2022-07-27T05:53:04.384Z,16.60
2022-07-27T05:55:31.619Z,16.60
2022-07-27T05:57:58.864Z,16.60
2022-07-27T06:00:26.186Z,16.70
2022-07-27T06:02:53.520Z,16.70
2022-07-27T06:05:20.722Z,16.90
2022-07-27T06:08:00.424Z,17.00
2022-07-27T06:10:32.430Z,17.20
2022-07-27T06:13:01.442Z,17.40
2022-07-27T06:15:28.709Z,17.50
2022-07-27T06:17:55.998Z,17.70
2022-07-27T06:20:24.583Z,17.80
2022-07-27T06:22:54.570Z,18.00
2022-07-27T06:25:23.051Z,18.20
2022-07-27T06:28:01.577Z,18.50
2022-07-27T06:30:29.023Z,18.80
2022-07-27T06:32:57.877Z,19.00
2022-07-27T06:35:26.590Z,19.70
2022-07-27T06:37:54.444Z,20.10
2022-07-27T06:40:21.896Z,20.20
2022-07-27T06:42:49.308Z,20.40
2022-07-27T06:45:16.800Z,20.50
2022-07-27T06:47:49.784Z,20.60
2022-07-27T06:50:21.554Z,20.80
2022-07-27T06:52:49.603Z,21.10
2022-07-27T06:55:16.998Z,22.30
2022-07-27T06:57:44.362Z,23.10
2022-07-27T07:00:12.198Z,23.30
2022-07-27T07:02:50.368Z,23.20
2022-07-27T07:05:17.561Z,23.00
2022-07-27T07:07:44.695Z,22.90
2022-07-27T07:10:12.021Z,23.60
2022-07-27T07:12:39.113Z,24.60
2022-07-27T07:15:07.975Z,25.50
2022-07-27T07:17:35.275Z,25.90
2022-07-27T07:20:03.888Z,26.20
2022-07-27T07:22:31.043Z,26.60
2022-07-27T07:25:02.602Z,27.10
2022-07-27T07:27:30.624Z,27.60
2022-07-27T07:29:57.980Z,27.90
2022-07-27T07:32:28.889Z,28.00
2022-07-27T07:35:01.352Z,28.20
2022-07-27T07:37:33.521Z,28.40
2022-07-27T07:40:18.788Z,28.10
2022-07-27T07:42:54.514Z,27.80
2022-07-27T07:45:22.782Z,27.20
2022-07-27T07:47:50.926Z,26.60
2022-07-27T07:50:19.083Z,26.00
2022-07-27T07:52:48.550Z,25.60
2022-07-27T07:55:18.954Z,25.30
2022-07-27T07:57:46.352Z,25.20
2022-07-27T08:00:14.073Z,25.20
2022-07-27T08:02:47.952Z,25.20
2022-07-27T08:05:16.580Z,25.20
2022-07-27T08:07:44.855Z,25.00
2022-07-27T08:10:14.019Z,24.90
2022-07-27T08:12:43.903Z,24.70
2022-07-27T08:15:13.799Z,24.70
2022-07-27T08:17:42.612Z,24.70
2022-07-27T08:20:10.908Z,24.50
2022-07-27T08:22:38.101Z,24.30
2022-07-27T08:25:05.940Z,24.10
2022-07-27T08:27:39.098Z,24.00
2022-07-27T08:30:09.805Z,23.90
2022-07-27T08:32:55.016Z,23.80
2022-07-27T08:35:22.758Z,23.70
2022-07-27T08:37:50.759Z,23.60
2022-07-27T08:43:08.148Z,23.20
2022-07-27T08:45:37.286Z,23.30
2022-07-27T08:48:05.286Z,23.50
2022-07-27T08:50:34.970Z,23.80
2022-07-27T08:53:11.584Z,24.00
2022-07-27T08:55:41.831Z,24.10
2022-07-27T08:58:10.632Z,24.00
2022-07-27T09:00:40.133Z,23.90
2022-07-27T09:03:07.957Z,23.90
2022-07-27T09:05:42.516Z,23.90
2022-07-27T09:08:10.959Z,23.90
2022-07-27T09:10:38.483Z,24.00
2022-07-27T09:13:23.092Z,24.10
2022-07-27T09:18:41.285Z,24.20
2022-07-27T09:21:20.879Z,24.30
2022-07-27T09:24:23.349Z,24.40
2022-07-27T09:27:05.746Z,24.50
2022-07-27T09:29:36.653Z,24.60
2022-07-27T09:32:15.818Z,24.60
2022-07-27T09:34:43.935Z,24.70
2022-07-27T09:37:12.347Z,24.80
2022-07-27T09:39:39.549Z,24.70
2022-07-27T09:42:52.478Z,24.60
2022-07-27T09:45:01.945Z,24.50
2022-07-27T09:47:31.053Z,24.30
2022-07-27T09:50:17.951Z,24.10
2022-07-27T09:52:45.646Z,23.90
2022-07-27T09:55:13.090Z,23.80
2022-07-27T09:57:57.797Z,23.70
2022-07-27T10:00:26.280Z,23.30
2022-07-27T10:02:55.123Z,23.30
2022-07-27T10:05:23.476Z,23.20
2022-07-27T10:07:53.323Z,23.10
2022-07-27T10:10:21.750Z,23.20
2022-07-27T10:12:54.744Z,23.30
2022-07-27T10:15:23.789Z,23.40
2022-07-27T10:18:07.595Z,23.50
2022-07-27T10:20:39.543Z,23.80
2022-07-27T10:23:07.340Z,24.10
2022-07-27T10:25:37.931Z,24.30
2022-07-27T10:28:19.319Z,24.20
2022-07-27T10:30:52.237Z,24.10
2022-07-27T10:33:44.676Z,23.90
2022-07-27T10:36:17.266Z,23.80
2022-07-27T10:38:53.144Z,23.80
2022-07-27T10:41:23.160Z,23.80
2022-07-27T10:44:10.947Z,23.90
2022-07-27T10:46:53.732Z,23.90
2022-07-27T10:49:30.530Z,23.80
2022-07-27T10:51:59.207Z,23.80
2022-07-27T10:54:36.775Z,23.80
2022-07-27T10:57:07.025Z,23.80
2022-07-27T11:00:06.804Z,23.80
2022-07-27T11:02:42.134Z,23.80
2022-07-27T11:05:48.423Z,23.80
2022-07-27T11:08:47.361Z,23.80
2022-07-27T11:10:48.278Z,23.90
2022-07-27T11:13:20.375Z,23.90
2022-07-27T11:15:59.715Z,23.80
2022-07-27T11:18:39.052Z,23.80
2022-07-27T11:21:30.287Z,23.80
2022-07-27T11:24:00.978Z,23.80
2022-07-27T11:26:29.995Z,23.80
2022-07-27T11:28:57.144Z,23.60
2022-07-27T11:31:54.721Z,23.30
2022-07-27T11:34:14.174Z,23.40
2022-07-27T11:36:45.565Z,23.80
2022-07-27T11:39:15.175Z,24.10
2022-07-27T11:44:31.849Z,24.10
2022-07-27T11:47:02.105Z,24.10
2022-07-27T11:49:31.664Z,24.40
2022-07-27T11:52:07.347Z,24.50
2022-07-27T11:54:35.933Z,24.50
2022-07-27T11:57:05.854Z,24.70
2022-07-27T11:59:37.572Z,24.80
2022-07-27T12:02:09.863Z,25.00
2022-07-27T12:04:39.880Z,24.90
2022-07-27T12:07:44.474Z,24.70
2022-07-27T12:10:11.778Z,24.50
2022-07-27T12:12:38.903Z,24.60
2022-07-27T12:15:45.902Z,24.90
2022-07-27T12:18:07.756Z,24.90
2022-07-27T12:20:36.713Z,24.70
2022-07-27T12:23:06.900Z,24.80
2022-07-27T12:25:35.224Z,24.90
2022-07-27T12:28:05.353Z,24.70
2022-07-27T12:30:32.452Z,24.70
2022-07-27T12:33:00.784Z,24.70
2022-07-27T12:35:46.678Z,24.70
2022-07-27T12:38:14.656Z,25.00
2022-07-27T12:40:49.963Z,25.20
2022-07-27T12:43:20.193Z,25.50
2022-07-27T12:45:53.499Z,25.50
2022-07-27T12:48:27.386Z,25.60
2022-07-27T12:51:04.284Z,25.70
2022-07-27T12:53:32.672Z,25.60
2022-07-27T12:56:04.507Z,25.30
2022-07-27T12:58:32.572Z,25.00
2022-07-27T13:00:59.971Z,24.70
2022-07-27T13:03:27.327Z,24.70
2022-07-27T13:05:54.448Z,24.90
2022-07-27T13:08:22.436Z,25.00
2022-07-27T13:10:52.292Z,24.90
2022-07-27T13:13:24.883Z,24.70
2022-07-27T13:15:52.389Z,24.60
2022-07-27T13:18:23.552Z,24.70
2022-07-27T13:20:52.342Z,24.80
2022-07-27T13:23:20.266Z,24.80
2022-07-27T13:25:47.367Z,24.90
2022-07-27T13:28:14.542Z,24.80
2022-07-27T13:30:41.779Z,24.50
2022-07-27T13:33:09.336Z,24.30
2022-07-27T13:35:36.563Z,24.40
2022-07-27T13:38:03.860Z,24.60
2022-07-27T13:40:31.087Z,24.70
2022-07-27T13:42:58.349Z,24.80
2022-07-27T13:45:25.583Z,24.90
2022-07-27T13:47:54.584Z,24.90
2022-07-27T13:50:22.258Z,24.90
2022-07-27T13:52:49.750Z,24.90
2022-07-27T13:55:18.120Z,25.00
2022-07-27T13:57:49.185Z,25.00
2022-07-27T14:00:16.850Z,24.90
2022-07-27T14:02:45.500Z,24.80
2022-07-27T14:05:14.555Z,24.70
2022-07-27T14:07:44.081Z,24.70
2022-07-27T14:10:31.169Z,24.80
2022-07-27T14:13:08.262Z,24.70
2022-07-27T14:15:52.957Z,24.50
2022-07-27T14:18:26.524Z,24.30
2022-07-27T14:20:58.209Z,24.40
2022-07-27T14:23:25.856Z,24.20
2022-07-27T14:25:54.357Z,24.10
2022-07-27T14:28:22.015Z,24.10
2022-07-27T14:30:49.856Z,24.10
2022-07-27T14:33:18.127Z,24.10
2022-07-27T14:35:46.649Z,24.20
2022-07-27T14:38:14.231Z,24.30
2022-07-27T14:40:54.007Z,24.40
2022-07-27T14:43:22.110Z,24.50
2022-07-27T14:45:49.600Z,24.40
2022-07-27T14:48:25.392Z,24.30
2022-07-27T14:51:04.284Z,24.20
2022-07-27T14:53:31.377Z,24.10
2022-07-27T14:55:58.530Z,24.10
2022-07-27T14:58:25.686Z,24.10
2022-07-27T15:00:53.077Z,24.10
2022-07-27T15:03:21.044Z,24.10
2022-07-27T15:05:49.434Z,24.10
2022-07-27T15:08:21.184Z,24.00
2022-07-27T15:10:49.252Z,24.10
2022-07-27T15:13:17.820Z,24.10
2022-07-27T15:15:48.738Z,24.10
2022-07-27T15:18:18.807Z,24.00
2022-07-27T15:20:47.089Z,24.00
2022-07-27T15:23:14.966Z,23.90
2022-07-27T15:25:42.859Z,23.90
2022-07-27T15:28:10.729Z,23.80
2022-07-27T15:30:38.794Z,23.80
2022-07-27T15:33:07.364Z,23.80
2022-07-27T15:35:35.283Z,23.70
2022-07-27T15:38:02.872Z,23.70
2022-07-27T15:40:41.446Z,23.70
2022-07-27T15:43:11.880Z,23.80
2022-07-27T15:45:45.760Z,23.70
2022-07-27T15:48:13.667Z,23.70
2022-07-27T15:50:43.968Z,23.70
2022-07-27T15:53:11.774Z,23.70
2022-07-27T15:55:39.099Z,23.70
2022-07-27T15:58:06.544Z,23.60
2022-07-27T16:00:39.540Z,23.60
2022-07-27T16:03:10.193Z,23.60
2022-07-27T16:05:38.664Z,23.60
2022-07-27T16:08:07.596Z,23.50
2022-07-27T16:10:34.750Z,23.40
2022-07-27T16:13:02.885Z,23.40
2022-07-27T16:15:50.644Z,23.40
2022-07-27T16:18:29.450Z,23.50
2022-07-27T16:20:57.084Z,23.50
2022-07-27T16:23:24.760Z,23.50
2022-07-27T16:26:10.554Z,23.50
2022-07-27T16:28:42.298Z,23.50
2022-07-27T16:31:13.681Z,23.50
2022-07-27T16:33:44.186Z,23.40
2022-07-27T16:36:12.671Z,23.50
2022-07-27T16:38:50.093Z,23.40
2022-07-27T16:41:19.930Z,23.40
2022-07-27T16:43:47.566Z,23.40
2022-07-27T16:46:14.917Z,23.40
2022-07-27T16:48:43.407Z,23.10
2022-07-27T16:51:12.898Z,23.10
2022-07-27T16:53:42.503Z,23.10
2022-07-27T16:56:10.852Z,23.10
2022-07-27T16:58:38.559Z,23.00
2022-07-27T17:01:06.412Z,23.00
2022-07-27T17:03:34.292Z,23.00
2022-07-27T17:06:06.134Z,22.90
2022-07-27T17:08:35.947Z,22.90
2022-07-27T17:11:05.376Z,22.60
2022-07-27T17:13:34.853Z,22.60
2022-07-27T17:16:06.789Z,22.50
2022-07-27T17:18:40.127Z,22.50
2022-07-27T17:21:15.181Z,22.40
2022-07-27T17:23:44.042Z,22.40
2022-07-27T17:26:12.662Z,22.40
2022-07-27T17:28:40.903Z,22.40
2022-07-27T17:31:10.928Z,22.40
2022-07-27T17:33:39.852Z,22.30
2022-07-27T17:36:14.014Z,22.20
2022-07-27T17:38:46.437Z,22.10
2022-07-27T17:41:18.083Z,22.10
2022-07-27T17:43:49.408Z,21.80
2022-07-27T17:46:17.651Z,21.70
2022-07-27T17:48:44.956Z,21.60
2022-07-27T17:51:12.605Z,21.30
2022-07-27T17:53:39.824Z,21.30
2022-07-27T17:56:08.308Z,21.20
2022-07-27T17:58:35.891Z,21.30
2022-07-27T18:01:04.561Z,21.20
2022-07-27T18:03:32.025Z,21.20
2022-07-27T18:06:00.325Z,21.10
2022-07-27T18:08:27.703Z,21.00
2022-07-27T18:10:54.889Z,21.00
2022-07-27T18:13:22.089Z,20.90
2022-07-27T18:15:50.764Z,20.90
2022-07-27T18:18:21.997Z,20.90
2022-07-27T18:20:52.437Z,20.90
2022-07-27T18:23:20.721Z,20.80
2022-07-27T18:25:48.333Z,20.80
2022-07-27T18:28:17.145Z,20.80
2022-07-27T18:30:46.123Z,20.80
2022-07-27T18:33:14.528Z,20.70
2022-07-27T18:35:46.106Z,20.70
2022-07-27T18:38:13.941Z,20.70
2022-07-27T18:40:43.492Z,20.70
2022-07-27T18:43:10.909Z,20.70
2022-07-27T18:45:39.160Z,20.70
2022-07-27T18:48:08.570Z,20.60
2022-07-27T18:50:40.145Z,20.60
2022-07-27T18:53:08.093Z,20.50
2022-07-27T18:55:35.573Z,20.50
2022-07-27T18:58:03.555Z,20.60
2022-07-27T19:00:31.099Z,20.60
2022-07-27T19:02:58.789Z,20.50
2022-07-27T19:05:32.562Z,20.40
2022-07-27T19:08:13.090Z,20.30
2022-07-27T19:10:42.294Z,20.30
2022-07-27T19:13:10.619Z,20.20
2022-07-27T19:15:37.926Z,20.20
2022-07-27T19:18:06.472Z,20.20
2022-07-27T19:20:33.785Z,20.20
2022-07-27T19:23:00.991Z,20.20
2022-07-27T19:25:30.402Z,20.10
2022-07-27T19:27:57.698Z,20.20
2022-07-27T19:30:24.950Z,20.20
2022-07-27T19:32:52.227Z,20.10
2022-07-27T19:35:19.417Z,20.10
2022-07-27T19:37:46.898Z,20.10
2022-07-27T19:40:42.995Z,20.10
2022-07-27T19:43:05.897Z,20.10
2022-07-27T19:45:33.845Z,20.10
2022-07-27T19:48:01.627Z,20.10
2022-07-27T19:50:28.942Z,20.10
2022-07-27T19:52:56.277Z,20.00
2022-07-27T19:55:24.264Z,20.00
2022-07-27T19:57:51.469Z,19.90
2022-07-27T20:00:18.902Z,19.90
2022-07-27T20:02:47.813Z,19.90
2022-07-27T20:05:15.096Z,19.90
2022-07-27T20:07:43.487Z,19.80
2022-07-27T20:10:11.263Z,19.90
2022-07-27T20:12:38.735Z,19.80
2022-07-27T20:15:06.842Z,19.80
2022-07-27T20:17:37.146Z,19.80
2022-07-27T20:20:20.031Z,19.80
2022-07-27T20:22:47.235Z,19.80
2022-07-27T20:25:15.342Z,19.80
2022-07-27T20:27:42.880Z,19.80
2022-07-27T20:30:11.064Z,19.90
2022-07-27T20:32:38.322Z,19.80
2022-07-27T20:35:06.432Z,19.80
2022-07-27T20:37:33.899Z,19.80
2022-07-27T20:40:01.437Z,19.70
2022-07-27T20:42:29.658Z,19.70
2022-07-27T20:44:57.081Z,19.70
2022-07-27T20:47:24.258Z,19.70
2022-07-27T20:49:51.460Z,19.70
2022-07-27T20:52:18.552Z,19.70
2022-07-27T20:54:45.827Z,19.70
2022-07-27T20:57:13.129Z,19.70
2022-07-27T20:59:40.295Z,19.70
2022-07-27T21:02:08.062Z,19.70
2022-07-27T21:04:35.588Z,19.60
2022-07-27T21:07:02.820Z,19.60
2022-07-27T21:09:31.564Z,19.60
2022-07-27T21:11:58.892Z,19.60
2022-07-27T21:14:26.083Z,19.60
2022-07-27T21:16:53.326Z,19.60
2022-07-27T21:19:22.540Z,19.60
2022-07-27T21:21:49.841Z,19.50
2022-07-27T21:24:18.338Z,19.60
2022-07-27T21:26:49.245Z,19.50
2022-07-27T21:29:17.135Z,19.50
2022-07-27T21:31:46.680Z,19.40
2022-07-27T21:34:17.059Z,19.40
2022-07-27T21:36:45.115Z,19.30
2022-07-27T21:39:12.921Z,19.20
2022-07-27T21:41:40.431Z,19.10
2022-07-27T21:44:07.671Z,19.10
2022-07-27T21:46:34.946Z,19.00
2022-07-27T21:49:02.585Z,19.00
2022-07-27T21:51:29.897Z,18.90
2022-07-27T21:53:57.038Z,18.90
2022-07-27T21:56:24.655Z,18.90
2022-07-27T21:58:51.969Z,18.80
2022-07-27T22:01:19.583Z,18.80
2022-07-27T22:03:47.083Z,18.80
2022-07-27T22:06:14.217Z,18.80
2022-07-27T22:08:41.328Z,18.70
2022-07-27T22:11:08.958Z,18.70
2022-07-27T22:13:36.425Z,18.60
2022-07-27T22:16:04.481Z,18.60
2022-07-27T22:18:32.078Z,18.50
2022-07-27T22:20:59.364Z,18.40
2022-07-27T22:23:26.484Z,18.30
2022-07-27T22:25:53.900Z,18.30
2022-07-27T22:28:25.523Z,18.30
2022-07-27T22:31:16.518Z,18.30
2022-07-27T22:33:44.233Z,18.30
2022-07-27T22:36:12.625Z,18.40
2022-07-27T22:38:40.162Z,18.20
2022-07-27T22:41:08.088Z,18.20
2022-07-27T22:43:35.486Z,18.20
2022-07-27T22:46:05.521Z,18.20
2022-07-27T22:48:33.068Z,18.30
2022-07-27T22:51:00.508Z,18.20
2022-07-27T22:53:27.630Z,18.20
2022-07-27T22:55:54.891Z,18.20
2022-07-27T22:58:22.549Z,18.20
2022-07-27T23:00:49.813Z,18.20
2022-07-27T23:03:17.196Z,18.10
2022-07-27T23:05:44.407Z,18.10
2022-07-27T23:08:11.547Z,18.20
2022-07-27T23:10:47.989Z,18.20
2022-07-27T23:13:16.820Z,18.20
2022-07-27T23:15:44.747Z,18.20
2022-07-27T23:18:12.616Z,18.10
2022-07-27T23:20:40.478Z,18.20
2022-07-27T23:23:15.844Z,18.10
2022-07-27T23:25:45.567Z,18.00
2022-07-27T23:28:15.168Z,18.10
2022-07-27T23:30:42.733Z,18.00
2022-07-27T23:33:10.074Z,18.00
2022-07-27T23:35:37.312Z,18.00
2022-07-27T23:38:04.619Z,18.00
2022-07-27T23:40:31.797Z,18.00
2022-07-27T23:42:59.071Z,18.00
2022-07-27T23:45:26.590Z,18.00
2022-07-27T23:47:53.806Z,17.90
2022-07-27T23:50:21.128Z,18.00
2022-07-27T23:52:48.298Z,17.90
2022-07-27T23:55:15.682Z,17.90
2022-07-27T23:57:42.747Z,17.80
